EZY729 EGCC-EGJJ
Flight info
| Callsign | EZY729 |
|---|---|
| Flight time | 0h 50m |
| Altitude | 23000 |
| Route | ASMIM DCT NOKIN P17 BEPHE/N0399F220 DCT OSSEP DCT ELNIF DCT ZESPE DCT DAWLY DCT ABBEW/N0392F210 N90 ENHEL N862 SKERY |
| Aircraft | A320/M-SDE3FGHIRWY/LB1 |
Departure
| Time | 2026-05-05 16:14 |
|---|---|
| Airport | Manchester Airport (EGCC) |
Arrival
| Time | 2026-05-05 17:04 |
|---|---|
| Airport | Jersey Airport (EGJJ) |
| Time | Latitude | Longitude | Altitude | Speed | Heading |
|---|---|---|---|---|---|
| 2026-05-05 15:42 | 53.36975 | -2.28651 | 255 ft | 0 kts | 135° |
| 2026-05-05 16:03 | 53.36991 | -2.28677 | 255 ft | 4 kts | 135° |
| 2026-05-05 16:03 | 53.37006 | -2.28702 | 255 ft | 4 kts | 135° |
| 2026-05-05 16:03 | 53.37025 | -2.28735 | 255 ft | 4 kts | 135° |
| 2026-05-05 16:03 | 53.37029 | -2.28741 | 255 ft | 4 kts | 135° |
| 2026-05-05 16:04 | 53.37007 | -2.28720 | 255 ft | 4 kts | 167° |
| 2026-05-05 16:04 | 53.36988 | -2.28739 | 255 ft | 4 kts | 224° |
| 2026-05-05 16:04 | 53.36970 | -2.28769 | 255 ft | 4 kts | 225° |
| 2026-05-05 16:04 | 53.36953 | -2.28796 | 255 ft | 1 kts | 225° |
| 2026-05-05 16:06 | 53.36913 | -2.28864 | 255 ft | 21 kts | 225° |
| 2026-05-05 16:07 | 53.36797 | -2.29022 | 255 ft | 19 kts | 201° |
| 2026-05-05 16:07 | 53.36728 | -2.29004 | 255 ft | 14 kts | 136° |
| 2026-05-05 16:07 | 53.36657 | -2.28903 | 255 ft | 13 kts | 156° |
| 2026-05-05 16:07 | 53.36593 | -2.28823 | 255 ft | 11 kts | 124° |
| 2026-05-05 16:08 | 53.36542 | -2.28697 | 255 ft | 9 kts | 132° |
| 2026-05-05 16:08 | 53.36514 | -2.28648 | 255 ft | 8 kts | 134° |
| 2026-05-05 16:08 | 53.36473 | -2.28578 | 255 ft | 9 kts | 134° |
| 2026-05-05 16:08 | 53.36431 | -2.28514 | 255 ft | 8 kts | 144° |
| 2026-05-05 16:09 | 53.36388 | -2.28480 | 255 ft | 6 kts | 171° |
| 2026-05-05 16:09 | 53.36342 | -2.28461 | 255 ft | 9 kts | 152° |
| 2026-05-05 16:09 | 53.36273 | -2.28349 | 255 ft | 18 kts | 136° |
| 2026-05-05 16:09 | 53.36168 | -2.28176 | 255 ft | 23 kts | 136° |
| 2026-05-05 16:10 | 53.36047 | -2.27984 | 255 ft | 25 kts | 138° |
| 2026-05-05 16:10 | 53.35895 | -2.27846 | 255 ft | 25 kts | 179° |
| 2026-05-05 16:10 | 53.35703 | -2.27884 | 245 ft | 30 kts | 184° |
| 2026-05-05 16:10 | 53.35527 | -2.28084 | 234 ft | 33 kts | 220° |
| 2026-05-05 16:11 | 53.35323 | -2.28204 | 233 ft | 31 kts | 200° |
| 2026-05-05 16:11 | 53.35016 | -2.28738 | 227 ft | 20 kts | 226° |
| 2026-05-05 16:12 | 53.34914 | -2.28916 | 224 ft | 23 kts | 225° |
| 2026-05-05 16:12 | 53.34713 | -2.29291 | 214 ft | 21 kts | 222° |
| 2026-05-05 16:13 | 53.34576 | -2.29146 | 219 ft | 10 kts | 50° |
| 2026-05-05 16:13 | 53.34710 | -2.28869 | 221 ft | 66 kts | 51° |
| 2026-05-05 16:13 | 53.35148 | -2.27962 | 234 ft | 131 kts | 51° |
| 2026-05-05 16:14 | 53.36480 | -2.25150 | 1192 ft | 155 kts | 50° |
| 2026-05-05 16:14 | 53.37973 | -2.22092 | 2141 ft | 190 kts | 46° |
| 2026-05-05 16:15 | 53.40636 | -2.20966 | 2984 ft | 236 kts | 337° |
| 2026-05-05 16:15 | 53.42533 | -2.25713 | 4500 ft | 265 kts | 289° |
| 2026-05-05 16:16 | 53.43924 | -2.31515 | 6320 ft | 272 kts | 296° |
| 2026-05-05 16:16 | 53.45608 | -2.37235 | 8224 ft | 274 kts | 298° |
| 2026-05-05 16:17 | 53.46917 | -2.43191 | 10044 ft | 281 kts | 273° |
| 2026-05-05 16:17 | 53.46751 | -2.46553 | 10485 ft | 301 kts | 259° |
| 2026-05-05 16:18 | 53.45845 | -2.53949 | 11221 ft | 338 kts | 260° |
| 2026-05-05 16:18 | 53.45357 | -2.57840 | 11945 ft | 344 kts | 255° |
| 2026-05-05 16:18 | 53.42913 | -2.64816 | 13510 ft | 356 kts | 226° |
| 2026-05-05 16:19 | 53.40970 | -2.67342 | 14234 ft | 362 kts | 212° |
| 2026-05-05 16:19 | 53.38657 | -2.69064 | 14932 ft | 367 kts | 203° |
| 2026-05-05 16:19 | 53.33825 | -2.72058 | 16305 ft | 372 kts | 202° |
| 2026-05-05 16:20 | 53.28965 | -2.75072 | 17631 ft | 377 kts | 202° |
| 2026-05-05 16:20 | 53.23996 | -2.78163 | 18885 ft | 383 kts | 202° |
| 2026-05-05 16:21 | 53.18966 | -2.81294 | 20013 ft | 387 kts | 202° |
| 2026-05-05 16:22 | 53.11398 | -2.85968 | 19095 ft | 392 kts | 201° |
| 2026-05-05 16:22 | 53.05976 | -2.87465 | 20277 ft | 402 kts | 182° |
| 2026-05-05 16:23 | 53.00342 | -2.86337 | 20928 ft | 421 kts | 173° |
| 2026-05-05 16:23 | 52.97407 | -2.85548 | 21059 ft | 432 kts | 173° |
| 2026-05-05 16:23 | 52.91352 | -2.83887 | 21300 ft | 448 kts | 173° |
| 2026-05-05 16:24 | 52.88250 | -2.83038 | 21428 ft | 454 kts | 173° |
| 2026-05-05 16:24 | 52.85110 | -2.82180 | 21555 ft | 460 kts | 173° |
| 2026-05-05 16:24 | 52.78741 | -2.80453 | 21076 ft | 464 kts | 173° |
| 2026-05-05 16:25 | 52.75556 | -2.79600 | 20819 ft | 463 kts | 173° |
| 2026-05-05 16:25 | 52.69237 | -2.77918 | 20364 ft | 460 kts | 173° |
| 2026-05-05 16:25 | 52.66080 | -2.77076 | 20246 ft | 461 kts | 173° |
| 2026-05-05 16:26 | 52.59755 | -2.75920 | 20545 ft | 458 kts | 184° |
| 2026-05-05 16:26 | 52.53392 | -2.76465 | 20629 ft | 457 kts | 185° |
| 2026-05-05 16:27 | 52.50215 | -2.76744 | 20637 ft | 457 kts | 185° |
| 2026-05-05 16:27 | 52.47033 | -2.77021 | 20729 ft | 454 kts | 185° |
| 2026-05-05 16:27 | 52.43873 | -2.77293 | 20942 ft | 456 kts | 185° |
| 2026-05-05 16:27 | 52.40725 | -2.77561 | 21007 ft | 459 kts | 185° |
| 2026-05-05 16:28 | 52.37523 | -2.77834 | 21011 ft | 460 kts | 185° |
| 2026-05-05 16:28 | 52.34326 | -2.78110 | 21011 ft | 460 kts | 185° |
| 2026-05-05 16:28 | 52.31127 | -2.78390 | 21006 ft | 460 kts | 185° |
| 2026-05-05 16:28 | 52.27931 | -2.78668 | 21011 ft | 460 kts | 185° |
| 2026-05-05 16:29 | 52.24773 | -2.78939 | 20995 ft | 460 kts | 185° |
| 2026-05-05 16:29 | 52.21556 | -2.79214 | 21007 ft | 462 kts | 185° |
| 2026-05-05 16:29 | 52.18348 | -2.79484 | 21006 ft | 462 kts | 184° |
| 2026-05-05 16:29 | 52.15128 | -2.79756 | 20997 ft | 462 kts | 184° |
| 2026-05-05 16:30 | 52.11914 | -2.80029 | 21003 ft | 462 kts | 185° |
| 2026-05-05 16:30 | 52.08744 | -2.80301 | 21001 ft | 462 kts | 185° |
| 2026-05-05 16:30 | 52.05527 | -2.80575 | 20998 ft | 462 kts | 184° |
| 2026-05-05 16:30 | 52.02308 | -2.80845 | 20997 ft | 462 kts | 184° |
| 2026-05-05 16:31 | 51.99096 | -2.81111 | 20991 ft | 462 kts | 185° |
| 2026-05-05 16:31 | 51.95882 | -2.81382 | 21011 ft | 461 kts | 185° |
| 2026-05-05 16:31 | 51.92677 | -2.81655 | 21015 ft | 462 kts | 184° |
| 2026-05-05 16:31 | 51.89500 | -2.81924 | 21019 ft | 462 kts | 185° |
| 2026-05-05 16:32 | 51.86282 | -2.82197 | 21022 ft | 462 kts | 185° |
| 2026-05-05 16:32 | 51.83081 | -2.82590 | 21028 ft | 461 kts | 187° |
| 2026-05-05 16:32 | 51.79888 | -2.83181 | 21031 ft | 461 kts | 188° |
| 2026-05-05 16:32 | 51.76743 | -2.83893 | 21024 ft | 461 kts | 190° |
| 2026-05-05 16:33 | 51.73568 | -2.84672 | 21026 ft | 462 kts | 191° |
| 2026-05-05 16:33 | 51.70377 | -2.85460 | 21028 ft | 462 kts | 190° |
| 2026-05-05 16:33 | 51.67187 | -2.86219 | 21026 ft | 463 kts | 189° |
| 2026-05-05 16:33 | 51.64033 | -2.86930 | 21030 ft | 463 kts | 189° |
| 2026-05-05 16:34 | 51.60843 | -2.87612 | 21024 ft | 463 kts | 189° |
| 2026-05-05 16:34 | 51.57637 | -2.88276 | 21014 ft | 463 kts | 188° |
| 2026-05-05 16:34 | 51.54481 | -2.89276 | 21004 ft | 461 kts | 198° |
| 2026-05-05 16:34 | 51.51462 | -2.90995 | 21007 ft | 462 kts | 201° |
| 2026-05-05 16:35 | 51.48478 | -2.92786 | 21007 ft | 463 kts | 202° |
| 2026-05-05 16:35 | 51.45461 | -2.94611 | 20996 ft | 463 kts | 202° |
| 2026-05-05 16:35 | 51.42443 | -2.96437 | 20988 ft | 463 kts | 202° |
| 2026-05-05 16:35 | 51.39429 | -2.98257 | 20982 ft | 463 kts | 202° |
| 2026-05-05 16:36 | 51.36410 | -3.00069 | 20996 ft | 463 kts | 201° |
| 2026-05-05 16:36 | 51.33451 | -3.01830 | 20985 ft | 448 kts | 201° |
| 2026-05-05 16:36 | 51.30605 | -3.03517 | 20974 ft | 424 kts | 201° |
| 2026-05-05 16:36 | 51.27899 | -3.05121 | 20983 ft | 409 kts | 202° |
| 2026-05-05 16:37 | 51.25240 | -3.06701 | 20978 ft | 405 kts | 201° |
| 2026-05-05 16:37 | 51.22597 | -3.08279 | 20978 ft | 405 kts | 201° |
| 2026-05-05 16:37 | 51.19960 | -3.09853 | 20984 ft | 404 kts | 202° |
| 2026-05-05 16:37 | 51.17318 | -3.11423 | 20977 ft | 404 kts | 202° |
| 2026-05-05 16:38 | 51.14708 | -3.12967 | 20977 ft | 404 kts | 202° |
| 2026-05-05 16:38 | 51.12066 | -3.14529 | 20981 ft | 404 kts | 202° |
| 2026-05-05 16:38 | 51.09389 | -3.16109 | 20981 ft | 415 kts | 202° |
| 2026-05-05 16:38 | 51.06668 | -3.17716 | 20982 ft | 430 kts | 202° |
| 2026-05-05 16:39 | 51.03820 | -3.19392 | 20979 ft | 443 kts | 201° |
| 2026-05-05 16:39 | 51.00895 | -3.21110 | 20982 ft | 453 kts | 202° |
| 2026-05-05 16:39 | 50.97905 | -3.22867 | 20977 ft | 461 kts | 202° |
| 2026-05-05 16:39 | 50.94874 | -3.24644 | 20981 ft | 464 kts | 201° |
| 2026-05-05 16:40 | 50.91839 | -3.26416 | 20973 ft | 464 kts | 202° |
| 2026-05-05 16:40 | 50.88809 | -3.28180 | 20973 ft | 464 kts | 201° |
| 2026-05-05 16:40 | 50.85809 | -3.29927 | 20977 ft | 464 kts | 202° |
| 2026-05-05 16:40 | 50.82770 | -3.31698 | 20969 ft | 463 kts | 202° |
| 2026-05-05 16:41 | 50.79734 | -3.33470 | 20975 ft | 465 kts | 202° |
| 2026-05-05 16:41 | 50.76760 | -3.35207 | 20971 ft | 449 kts | 202° |
| 2026-05-05 16:41 | 50.73902 | -3.36867 | 20976 ft | 425 kts | 202° |
| 2026-05-05 16:41 | 50.71181 | -3.38437 | 20976 ft | 410 kts | 201° |
| 2026-05-05 16:42 | 50.68504 | -3.39980 | 20973 ft | 407 kts | 202° |
| 2026-05-05 16:42 | 50.65888 | -3.41492 | 20973 ft | 405 kts | 202° |
| 2026-05-05 16:42 | 50.63241 | -3.43030 | 20975 ft | 405 kts | 202° |
| 2026-05-05 16:42 | 50.60593 | -3.44566 | 20971 ft | 405 kts | 202° |
| 2026-05-05 16:43 | 50.57916 | -3.45997 | 20978 ft | 407 kts | 195° |
| 2026-05-05 16:43 | 50.55116 | -3.46800 | 20973 ft | 411 kts | 186° |
| 2026-05-05 16:43 | 50.52254 | -3.46858 | 20972 ft | 412 kts | 176° |
| 2026-05-05 16:43 | 50.49425 | -3.46144 | 20925 ft | 413 kts | 166° |
| 2026-05-05 16:44 | 50.46758 | -3.44696 | 20523 ft | 410 kts | 155° |
| 2026-05-05 16:44 | 50.44209 | -3.42634 | 20213 ft | 410 kts | 152° |
| 2026-05-05 16:44 | 50.41681 | -3.40563 | 19891 ft | 409 kts | 153° |
| 2026-05-05 16:44 | 50.39146 | -3.38510 | 19581 ft | 408 kts | 153° |
| 2026-05-05 16:45 | 50.36653 | -3.36504 | 19267 ft | 405 kts | 152° |
| 2026-05-05 16:45 | 50.34144 | -3.34488 | 18960 ft | 403 kts | 152° |
| 2026-05-05 16:45 | 50.31652 | -3.32482 | 18652 ft | 402 kts | 152° |
| 2026-05-05 16:45 | 50.29167 | -3.30482 | 18344 ft | 401 kts | 152° |
| 2026-05-05 16:46 | 50.26693 | -3.28491 | 17999 ft | 398 kts | 152° |
| 2026-05-05 16:46 | 50.24226 | -3.26537 | 17708 ft | 397 kts | 155° |
| 2026-05-05 16:46 | 50.21661 | -3.25100 | 17413 ft | 396 kts | 165° |
| 2026-05-05 16:46 | 50.18989 | -3.24126 | 17104 ft | 393 kts | 167° |
| 2026-05-05 16:47 | 50.16325 | -3.23176 | 16802 ft | 392 kts | 167° |
| 2026-05-05 16:47 | 50.13672 | -3.22225 | 16496 ft | 390 kts | 166° |
| 2026-05-05 16:47 | 50.11018 | -3.21270 | 16204 ft | 389 kts | 166° |
| 2026-05-05 16:47 | 50.08420 | -3.20336 | 15909 ft | 387 kts | 166° |
| 2026-05-05 16:48 | 50.05799 | -3.19396 | 15621 ft | 386 kts | 165° |
| 2026-05-05 16:48 | 50.03179 | -3.18457 | 15319 ft | 384 kts | 166° |
| 2026-05-05 16:48 | 50.00617 | -3.17319 | 15022 ft | 380 kts | 158° |
| 2026-05-05 16:48 | 49.98249 | -3.15516 | 14715 ft | 377 kts | 147° |
| 2026-05-05 16:49 | 49.96095 | -3.13313 | 14401 ft | 374 kts | 145° |
| 2026-05-05 16:49 | 49.93921 | -3.11078 | 14085 ft | 372 kts | 145° |
| 2026-05-05 16:49 | 49.91756 | -3.08865 | 13779 ft | 371 kts | 145° |
| 2026-05-05 16:49 | 49.89604 | -3.06667 | 13434 ft | 369 kts | 145° |
| 2026-05-05 16:50 | 49.87463 | -3.04483 | 13127 ft | 368 kts | 145° |
| 2026-05-05 16:50 | 49.85357 | -3.02339 | 12825 ft | 367 kts | 145° |
| 2026-05-05 16:50 | 49.83225 | -3.00173 | 12514 ft | 365 kts | 145° |
| 2026-05-05 16:50 | 49.81094 | -2.98011 | 12195 ft | 364 kts | 145° |
| 2026-05-05 16:51 | 49.78973 | -2.95863 | 11895 ft | 363 kts | 145° |
| 2026-05-05 16:51 | 49.76865 | -2.93728 | 11596 ft | 362 kts | 145° |
| 2026-05-05 16:51 | 49.74764 | -2.91597 | 11295 ft | 361 kts | 145° |
| 2026-05-05 16:51 | 49.72691 | -2.89495 | 10994 ft | 360 kts | 145° |
| 2026-05-05 16:52 | 49.70597 | -2.87377 | 10706 ft | 355 kts | 145° |
| 2026-05-05 16:52 | 49.68573 | -2.85336 | 10580 ft | 339 kts | 146° |
| 2026-05-05 16:52 | 49.66640 | -2.83386 | 10457 ft | 325 kts | 146° |
| 2026-05-05 16:52 | 49.64782 | -2.81514 | 10333 ft | 313 kts | 146° |
| 2026-05-05 16:53 | 49.62991 | -2.79712 | 10174 ft | 303 kts | 146° |
| 2026-05-05 16:53 | 49.61261 | -2.77970 | 10006 ft | 297 kts | 146° |
| 2026-05-05 16:53 | 49.59518 | -2.76216 | 9932 ft | 300 kts | 146° |
| 2026-05-05 16:53 | 49.57765 | -2.74457 | 9712 ft | 301 kts | 146° |
| 2026-05-05 16:54 | 49.56013 | -2.72701 | 9475 ft | 299 kts | 146° |
| 2026-05-05 16:54 | 49.54266 | -2.70947 | 9270 ft | 298 kts | 146° |
| 2026-05-05 16:54 | 49.52534 | -2.69209 | 9053 ft | 296 kts | 146° |
| 2026-05-05 16:54 | 49.50811 | -2.67481 | 8847 ft | 295 kts | 145° |
| 2026-05-05 16:55 | 49.49093 | -2.65765 | 8636 ft | 294 kts | 145° |
| 2026-05-05 16:55 | 49.47398 | -2.64076 | 8294 ft | 292 kts | 145° |
| 2026-05-05 16:55 | 49.45689 | -2.62373 | 7870 ft | 292 kts | 145° |
| 2026-05-05 16:55 | 49.43986 | -2.60683 | 7460 ft | 291 kts | 147° |
| 2026-05-05 16:56 | 49.42152 | -2.59450 | 7048 ft | 291 kts | 164° |
| 2026-05-05 16:56 | 49.40155 | -2.58834 | 6632 ft | 291 kts | 170° |
| 2026-05-05 16:56 | 49.38153 | -2.58351 | 6188 ft | 291 kts | 170° |
| 2026-05-05 16:56 | 49.36150 | -2.57890 | 5763 ft | 289 kts | 171° |
| 2026-05-05 16:57 | 49.34187 | -2.57447 | 5335 ft | 288 kts | 170° |
| 2026-05-05 16:57 | 49.32204 | -2.57010 | 4916 ft | 287 kts | 171° |
| 2026-05-05 16:57 | 49.30230 | -2.56590 | 4491 ft | 285 kts | 170° |
| 2026-05-05 16:57 | 49.28277 | -2.56192 | 4205 ft | 278 kts | 171° |
| 2026-05-05 16:58 | 49.26396 | -2.55820 | 4073 ft | 266 kts | 171° |
| 2026-05-05 16:58 | 49.24599 | -2.55466 | 3939 ft | 254 kts | 171° |
| 2026-05-05 16:58 | 49.22902 | -2.55138 | 3813 ft | 244 kts | 171° |
| 2026-05-05 16:58 | 49.21237 | -2.54799 | 3566 ft | 239 kts | 165° |
| 2026-05-05 16:59 | 49.19759 | -2.53811 | 3299 ft | 229 kts | 137° |
| 2026-05-05 16:59 | 49.18748 | -2.52043 | 3158 ft | 212 kts | 112° |
| 2026-05-05 16:59 | 49.18315 | -2.50014 | 3012 ft | 190 kts | 90° |
| 2026-05-05 16:59 | 49.18364 | -2.48116 | 2725 ft | 177 kts | 77° |
| 2026-05-05 17:00 | 49.18528 | -2.46253 | 2324 ft | 177 kts | 77° |
| 2026-05-05 17:00 | 49.18690 | -2.44395 | 2017 ft | 175 kts | 77° |
| 2026-05-05 17:00 | 49.18846 | -2.42572 | 2026 ft | 167 kts | 77° |
| 2026-05-05 17:00 | 49.18993 | -2.40847 | 2025 ft | 161 kts | 76° |
| 2026-05-05 17:01 | 49.19138 | -2.39163 | 2025 ft | 158 kts | 77° |
| 2026-05-05 17:01 | 49.19282 | -2.37483 | 2008 ft | 159 kts | 77° |
| 2026-05-05 17:01 | 49.19424 | -2.35809 | 2007 ft | 159 kts | 76° |
| 2026-05-05 17:01 | 49.19564 | -2.34161 | 1971 ft | 158 kts | 77° |
| 2026-05-05 17:02 | 49.19706 | -2.32491 | 1826 ft | 158 kts | 77° |
| 2026-05-05 17:02 | 49.19848 | -2.30822 | 1637 ft | 159 kts | 77° |
| 2026-05-05 17:02 | 49.19989 | -2.29150 | 1429 ft | 158 kts | 77° |
| 2026-05-05 17:02 | 49.20123 | -2.27547 | 1215 ft | 152 kts | 78° |
| 2026-05-05 17:03 | 49.20259 | -2.25942 | 1009 ft | 151 kts | 78° |
| 2026-05-05 17:03 | 49.20394 | -2.24351 | 817 ft | 150 kts | 78° |
| 2026-05-05 17:03 | 49.20526 | -2.22774 | 610 ft | 149 kts | 78° |
| 2026-05-05 17:03 | 49.20654 | -2.21230 | 427 ft | 146 kts | 79° |
| 2026-05-05 17:04 | 49.20783 | -2.19746 | 281 ft | 117 kts | 82° |
| 2026-05-05 17:04 | 49.20803 | -2.19079 | 282 ft | 37 kts | 102° |
| 2026-05-05 17:04 | 49.20715 | -2.18855 | 282 ft | 6 kts | 182° |
| 2026-05-05 17:04 | 49.20708 | -2.18877 | 282 ft | 2 kts | 250° |
| 2026-05-05 17:05 | 49.20706 | -2.18895 | 282 ft | 3 kts | 259° |
| 2026-05-05 17:05 | 49.20695 | -2.19003 | 282 ft | 18 kts | 263° |
| 2026-05-05 17:05 | 49.20687 | -2.19230 | 282 ft | 22 kts | 280° |
| 2026-05-05 17:05 | 49.20705 | -2.19462 | 281 ft | 22 kts | 253° |
| 2026-05-05 17:06 | 49.20649 | -2.19656 | 281 ft | 17 kts | 201° |
| 2026-05-05 17:06 | 49.20587 | -2.19651 | 286 ft | 6 kts | 162° |
| 2026-05-05 17:06 | 49.20582 | -2.19649 | 284 ft | 0 kts | 162° |
| 2026-05-05 17:06 | 49.20581 | -2.19648 | 284 ft | 0 kts | 162° |
| 2026-05-05 17:07 | 49.20479 | -2.19569 | 281 ft | 0 kts | 8° |